createdAt,value
2023-01-17T00:00:55.109Z,64.16
2023-01-17T00:02:59.723Z,63.91
2023-01-17T00:05:19.872Z,63.64
2023-01-17T00:07:42.135Z,63.92
2023-01-17T00:09:53.721Z,63.22
2023-01-17T00:11:56.859Z,62.73
2023-01-17T00:14:00.762Z,62.26
2023-01-17T00:16:03.655Z,62.65
2023-01-17T00:18:07.860Z,62.20
2023-01-17T00:20:31.894Z,62.00
2023-01-17T00:22:52.811Z,62.57
2023-01-17T00:25:13.118Z,62.12
2023-01-17T00:27:14.789Z,62.43
2023-01-17T00:29:16.468Z,62.33
2023-01-17T00:31:18.406Z,62.42
2023-01-17T00:33:22.467Z,62.87
2023-01-17T00:35:25.594Z,61.81
2023-01-17T00:37:27.327Z,61.67
2023-01-17T00:39:29.034Z,62.04
2023-01-17T00:41:30.685Z,62.57
2023-01-17T00:43:51.056Z,62.38
2023-01-17T00:46:11.886Z,62.69
2023-01-17T00:48:32.319Z,63.09
2023-01-17T00:50:55.262Z,62.81
2023-01-17T00:53:15.453Z,62.74
2023-01-17T00:55:35.906Z,62.23
2023-01-17T00:57:56.243Z,62.60
2023-01-17T01:00:16.551Z,62.41
2023-01-17T01:02:36.892Z,62.97
2023-01-17T01:04:57.398Z,63.00
2023-01-17T01:07:18.978Z,62.59
2023-01-17T01:09:39.181Z,62.73
2023-01-17T01:11:59.271Z,62.79
2023-01-17T01:14:20.325Z,63.42
2023-01-17T01:16:40.544Z,63.28
2023-01-17T01:19:00.770Z,62.80
2023-01-17T01:21:21.517Z,62.99
2023-01-17T01:23:43.134Z,62.15
2023-01-17T01:26:03.230Z,62.42
2023-01-17T01:28:25.303Z,62.65
2023-01-17T01:30:45.462Z,62.42
2023-01-17T01:33:05.720Z,62.18
2023-01-17T01:35:08.964Z,62.13
2023-01-17T01:37:11.715Z,62.32
2023-01-17T01:39:15.872Z,62.09
2023-01-17T01:41:18.951Z,61.55
2023-01-17T01:43:40.207Z,61.83
2023-01-17T01:45:48.109Z,62.50
2023-01-17T01:47:54.952Z,62.64
2023-01-17T01:50:02.136Z,62.15
2023-01-17T01:52:07.809Z,62.06
2023-01-17T01:54:15.220Z,61.87
2023-01-17T01:56:20.507Z,62.39
2023-01-17T01:58:28.894Z,62.61
2023-01-17T02:00:36.136Z,63.09
2023-01-17T02:02:39.383Z,63.15
2023-01-17T02:04:42.408Z,63.01
2023-01-17T02:06:48.944Z,63.39
2023-01-17T02:08:52.163Z,63.56
2023-01-17T02:10:56.936Z,63.63
2023-01-17T02:13:02.148Z,63.86
2023-01-17T02:15:08.082Z,64.11
2023-01-17T02:17:21.940Z,64.01
2023-01-17T02:20:03.721Z,64.18
2023-01-17T02:22:28.024Z,63.71
2023-01-17T02:24:49.343Z,63.86
2023-01-17T02:26:57.481Z,63.85
2023-01-17T02:29:27.816Z,64.05
2023-01-17T02:31:37.969Z,64.63
2023-01-17T02:33:48.721Z,64.61
2023-01-17T02:36:04.079Z,64.89
2023-01-17T02:38:18.390Z,65.38
2023-01-17T02:40:27.781Z,65.25
2023-01-17T02:42:35.586Z,65.51
2023-01-17T02:44:42.324Z,65.86
2023-01-17T02:46:48.758Z,66.19
2023-01-17T02:48:53.018Z,66.94
2023-01-17T02:51:12.613Z,66.82
2023-01-17T02:53:30.887Z,67.21
2023-01-17T02:55:44.251Z,67.87
2023-01-17T02:58:08.163Z,67.94
2023-01-17T03:00:22.518Z,67.97
2023-01-17T03:02:35.035Z,68.44
2023-01-17T03:04:45.456Z,68.83
2023-01-17T03:06:53.494Z,69.21
2023-01-17T03:08:56.277Z,69.26
2023-01-17T03:10:59.510Z,69.62
2023-01-17T03:13:03.948Z,69.46
2023-01-17T03:15:10.987Z,69.93
2023-01-17T03:17:14.091Z,69.79
2023-01-17T03:19:18.225Z,70.10
2023-01-17T03:21:21.617Z,70.47
2023-01-17T03:23:24.385Z,70.55
2023-01-17T03:25:27.216Z,71.11
2023-01-17T03:27:30.868Z,70.83
2023-01-17T03:29:33.599Z,70.90
2023-01-17T03:31:36.379Z,70.71
2023-01-17T03:33:39.143Z,70.39
2023-01-17T03:35:43.241Z,70.69
2023-01-17T03:37:46.060Z,70.50
2023-01-17T03:39:48.915Z,70.91
2023-01-17T03:41:51.734Z,70.48
2023-01-17T03:43:54.553Z,71.04
2023-01-17T03:46:03.241Z,70.78
2023-01-17T03:48:06.558Z,70.82
2023-01-17T03:50:10.957Z,70.92
2023-01-17T03:52:15.147Z,70.60
2023-01-17T03:54:17.907Z,70.64
2023-01-17T03:56:20.867Z,70.70
2023-01-17T03:58:23.624Z,70.80
2023-01-17T04:00:26.427Z,71.06
2023-01-17T04:02:30.070Z,70.91
2023-01-17T04:04:32.867Z,70.82
2023-01-17T04:06:35.575Z,70.33
2023-01-17T04:08:39.758Z,70.35
2023-01-17T04:10:42.562Z,70.44
2023-01-17T04:12:45.510Z,69.98
2023-01-17T04:14:49.091Z,70.15
2023-01-17T04:16:51.924Z,69.96
2023-01-17T04:18:54.738Z,70.60
2023-01-17T04:20:57.551Z,70.99
2023-01-17T04:23:00.498Z,70.95
2023-01-17T04:25:05.067Z,70.82
2023-01-17T04:27:08.089Z,70.59
2023-01-17T04:29:10.775Z,70.50
2023-01-17T04:31:16.784Z,70.72
2023-01-17T04:33:19.814Z,70.81
2023-01-17T04:35:22.705Z,71.37
2023-01-17T04:37:25.512Z,71.50
2023-01-17T04:39:28.289Z,71.56
2023-01-17T04:41:32.497Z,71.65
2023-01-17T04:43:35.927Z,71.81
2023-01-17T04:45:39.151Z,72.47
2023-01-17T04:47:41.944Z,72.59
2023-01-17T04:49:44.747Z,72.25
2023-01-17T04:51:47.575Z,72.25
2023-01-17T04:53:50.373Z,71.75
2023-01-17T04:55:53.191Z,72.03
2023-01-17T04:57:57.330Z,71.54
2023-01-17T05:00:00.224Z,71.56
2023-01-17T05:02:03.053Z,71.56
2023-01-17T05:04:06.179Z,71.26
2023-01-17T05:06:09.258Z,71.01
2023-01-17T05:08:12.155Z,71.71
2023-01-17T05:10:15.071Z,71.18
2023-01-17T05:12:17.895Z,71.33
2023-01-17T05:14:22.264Z,71.11
2023-01-17T05:16:25.179Z,71.25
2023-01-17T05:18:27.998Z,71.69
2023-01-17T05:20:30.849Z,71.42
2023-01-17T05:22:33.640Z,71.37
2023-01-17T05:24:36.465Z,71.63
2023-01-17T05:26:40.615Z,71.66
2023-01-17T05:28:43.410Z,71.51
2023-01-17T05:30:47.893Z,71.38
2023-01-17T05:32:51.869Z,71.72
2023-01-17T05:34:54.768Z,71.77
2023-01-17T05:36:57.700Z,71.91
2023-01-17T05:39:00.449Z,72.08
2023-01-17T05:41:05.030Z,71.91
2023-01-17T05:43:07.843Z,71.70
2023-01-17T05:45:12.415Z,72.09
2023-01-17T05:47:17.712Z,71.77
2023-01-17T05:49:20.447Z,71.77
2023-01-17T05:51:23.264Z,71.53
2023-01-17T05:53:26.136Z,71.82
2023-01-17T05:55:30.735Z,72.20
2023-01-17T05:57:33.489Z,71.91
2023-01-17T05:59:37.573Z,71.89
2023-01-17T06:01:40.558Z,71.94
2023-01-17T06:03:44.696Z,71.98
2023-01-17T06:05:48.045Z,72.00
2023-01-17T06:07:51.297Z,71.82
2023-01-17T06:09:54.135Z,72.45
2023-01-17T06:11:56.928Z,72.46
2023-01-17T06:13:59.771Z,72.02
2023-01-17T06:16:04.227Z,71.79
2023-01-17T06:18:08.269Z,71.99
2023-01-17T06:20:13.609Z,71.28
2023-01-17T06:22:16.388Z,70.59
2023-01-17T06:24:19.175Z,70.95
2023-01-17T06:26:21.943Z,70.67
2023-01-17T06:28:25.124Z,70.64
2023-01-17T06:30:27.928Z,70.84
2023-01-17T06:32:30.688Z,70.44
2023-01-17T06:34:33.484Z,70.42
2023-01-17T06:36:37.620Z,70.04
2023-01-17T06:38:40.413Z,69.79
2023-01-17T06:40:43.224Z,70.06
2023-01-17T06:42:46.200Z,70.15
2023-01-17T06:44:48.987Z,70.22
2023-01-17T06:46:51.792Z,70.29
2023-01-17T06:48:54.890Z,69.47
2023-01-17T06:50:58.392Z,69.70
2023-01-17T06:53:04.227Z,69.87
2023-01-17T06:55:08.363Z,70.07
2023-01-17T06:57:11.210Z,70.43
2023-01-17T06:59:13.942Z,70.25
2023-01-17T07:01:16.786Z,70.39
2023-01-17T07:03:21.819Z,69.98
2023-01-17T07:05:24.566Z,70.12
2023-01-17T07:07:27.328Z,69.74
2023-01-17T07:09:31.603Z,69.78
2023-01-17T07:11:34.405Z,69.96
2023-01-17T07:13:38.370Z,69.88
2023-01-17T07:15:41.423Z,70.02
2023-01-17T07:17:44.275Z,70.43
2023-01-17T07:19:47.059Z,70.45
2023-01-17T07:21:52.139Z,70.04
2023-01-17T07:23:55.533Z,70.15
2023-01-17T07:26:01.755Z,69.99
2023-01-17T07:28:04.904Z,69.51
2023-01-17T07:30:08.960Z,69.44
2023-01-17T07:32:11.848Z,69.52
2023-01-17T07:34:14.669Z,69.46
2023-01-17T07:36:17.498Z,69.89
2023-01-17T07:38:21.223Z,69.33
2023-01-17T07:40:24.348Z,69.40
2023-01-17T07:42:28.462Z,69.72
2023-01-17T07:44:31.207Z,70.19
2023-01-17T07:46:34.139Z,69.91
2023-01-17T07:48:37.018Z,70.15
2023-01-17T07:50:40.156Z,70.05
2023-01-17T07:52:42.880Z,69.84
2023-01-17T07:54:45.661Z,69.57
2023-01-17T07:56:48.960Z,69.63
2023-01-17T07:58:53.196Z,69.57
2023-01-17T08:00:56.255Z,69.68
2023-01-17T08:02:59.749Z,69.82
2023-01-17T08:05:02.512Z,69.72
2023-01-17T08:07:05.349Z,69.44
2023-01-17T08:09:08.132Z,69.22
2023-01-17T08:11:11.015Z,69.26
2023-01-17T08:13:13.913Z,69.39
2023-01-17T08:15:19.034Z,69.40
2023-01-17T08:17:21.804Z,69.21
2023-01-17T08:19:24.585Z,69.51
2023-01-17T08:21:27.410Z,69.45
2023-01-17T08:23:31.137Z,69.29
2023-01-17T08:25:35.364Z,68.98
2023-01-17T08:27:38.304Z,68.88
2023-01-17T08:29:46.841Z,69.27
2023-01-17T08:31:51.659Z,68.98
2023-01-17T08:33:54.550Z,69.30
2023-01-17T08:35:57.287Z,69.27
2023-01-17T08:38:04.674Z,69.40
2023-01-17T08:40:08.835Z,69.35
2023-01-17T08:42:11.674Z,69.43
2023-01-17T08:44:15.751Z,68.98
2023-01-17T08:46:19.252Z,69.09
2023-01-17T08:48:23.587Z,69.48
2023-01-17T08:50:26.901Z,69.31
2023-01-17T08:52:30.275Z,69.37
2023-01-17T08:54:33.094Z,69.51
2023-01-17T08:56:36.097Z,69.82
2023-01-17T08:58:38.921Z,69.83
2023-01-17T09:00:41.689Z,70.16
2023-01-17T09:02:44.565Z,70.04
2023-01-17T09:04:50.085Z,70.21
2023-01-17T09:06:52.848Z,70.84
2023-01-17T09:08:55.593Z,70.58
2023-01-17T09:10:58.648Z,70.19
2023-01-17T09:13:01.471Z,70.07
2023-01-17T09:15:05.158Z,69.84
2023-01-17T09:17:07.931Z,69.91
2023-01-17T09:19:11.064Z,69.08
2023-01-17T09:21:17.067Z,68.75
2023-01-17T09:23:19.809Z,68.33
2023-01-17T09:25:22.569Z,68.43
2023-01-17T09:27:25.517Z,68.38
2023-01-17T09:29:28.386Z,68.24
2023-01-17T09:31:31.678Z,68.11
2023-01-17T09:33:34.764Z,67.82
2023-01-17T09:35:37.806Z,67.29
2023-01-17T09:37:41.998Z,66.41
2023-01-17T09:39:44.722Z,66.18
2023-01-17T09:41:53.898Z,66.36
2023-01-17T09:44:02.428Z,66.07
2023-01-17T09:46:07.378Z,66.16
2023-01-17T09:48:17.750Z,66.23
2023-01-17T09:50:28.411Z,66.97
2023-01-17T09:52:33.391Z,67.68
2023-01-17T09:54:40.007Z,67.01
2023-01-17T09:56:49.792Z,66.99
2023-01-17T09:59:08.492Z,67.44
2023-01-17T10:01:20.054Z,67.88
2023-01-17T10:03:43.495Z,67.74
2023-01-17T10:05:57.925Z,67.55
2023-01-17T10:08:13.542Z,67.44
2023-01-17T10:10:29.177Z,67.22
2023-01-17T10:12:40.504Z,66.99
2023-01-17T10:15:10.314Z,67.08
2023-01-17T10:17:44.616Z,67.31
2023-01-17T10:20:03.911Z,67.61
2023-01-17T10:22:23.807Z,67.42
2023-01-17T10:24:54.603Z,67.44
2023-01-17T10:27:02.469Z,67.18
2023-01-17T10:29:13.502Z,66.96
2023-01-17T10:31:22.526Z,67.03
2023-01-17T10:33:29.467Z,66.62
2023-01-17T10:35:37.663Z,66.88
2023-01-17T10:37:41.484Z,66.48
2023-01-17T10:39:45.955Z,66.68
2023-01-17T10:41:56.158Z,66.60
2023-01-17T10:44:08.371Z,66.08
2023-01-17T10:46:17.918Z,65.97
2023-01-17T10:48:34.535Z,65.74
2023-01-17T10:50:48.568Z,65.36
2023-01-17T10:52:58.907Z,65.21
2023-01-17T10:55:23.705Z,65.43
2023-01-17T10:57:28.344Z,65.75
2023-01-17T10:59:33.867Z,65.58
2023-01-17T11:01:36.730Z,65.73
2023-01-17T11:03:40.941Z,64.97
2023-01-17T11:05:44.650Z,64.91
2023-01-17T11:07:58.378Z,64.86
2023-01-17T11:10:01.297Z,64.40
2023-01-17T11:12:04.368Z,64.19
2023-01-17T11:14:16.767Z,64.38
2023-01-17T11:16:26.729Z,64.31
2023-01-17T11:18:32.432Z,64.25
2023-01-17T11:20:37.010Z,64.16
2023-01-17T11:22:40.080Z,63.46
2023-01-17T11:24:50.316Z,63.08
2023-01-17T11:26:53.327Z,62.49
2023-01-17T11:29:14.958Z,62.99
2023-01-17T11:31:26.932Z,63.10
2023-01-17T11:33:47.655Z,63.14
2023-01-17T11:35:50.503Z,62.37
2023-01-17T11:38:06.219Z,61.56
2023-01-17T11:40:10.133Z,62.42
2023-01-17T11:42:34.525Z,62.25
2023-01-17T11:44:37.282Z,61.85
2023-01-17T11:46:41.532Z,60.84
2023-01-17T11:48:48.695Z,60.83
2023-01-17T11:50:57.295Z,59.65
2023-01-17T11:53:07.070Z,59.92
2023-01-17T11:55:16.829Z,60.24
2023-01-17T11:57:24.552Z,61.02
2023-01-17T11:59:35.088Z,60.36
2023-01-17T12:01:47.233Z,60.79
2023-01-17T12:04:02.875Z,59.41
2023-01-17T12:06:14.645Z,59.86
2023-01-17T12:08:27.550Z,60.33
2023-01-17T12:10:37.070Z,60.16
2023-01-17T12:13:11.586Z,59.94
2023-01-17T12:15:32.437Z,59.53
2023-01-17T12:17:52.311Z,59.32
2023-01-17T12:20:04.797Z,59.50
2023-01-17T12:22:33.754Z,59.54
2023-01-17T12:24:56.393Z,59.12
2023-01-17T12:27:08.778Z,59.03
2023-01-17T12:29:47.387Z,58.97
2023-01-17T12:32:01.935Z,58.65
2023-01-17T12:34:22.293Z,59.22
2023-01-17T12:36:47.919Z,58.67
2023-01-17T12:38:51.417Z,57.47
2023-01-17T12:41:01.899Z,55.42
2023-01-17T12:43:12.450Z,55.06
2023-01-17T12:45:22.429Z,55.70
2023-01-17T12:47:25.449Z,56.44
2023-01-17T12:49:43.235Z,55.15
2023-01-17T12:51:50.113Z,56.40
2023-01-17T12:53:59.184Z,55.01
2023-01-17T12:56:07.813Z,54.97
2023-01-17T12:58:16.847Z,56.04
2023-01-17T13:00:23.095Z,56.68
2023-01-17T13:02:33.272Z,56.17
2023-01-17T13:04:57.774Z,55.27
2023-01-17T13:07:19.137Z,53.88
2023-01-17T13:09:23.891Z,54.07
2023-01-17T13:11:30.768Z,53.00
2023-01-17T13:13:35.589Z,52.97
2023-01-17T13:15:41.353Z,52.45
2023-01-17T13:17:49.106Z,53.30
2023-01-17T13:19:58.293Z,53.85
2023-01-17T13:22:03.342Z,53.68
2023-01-17T13:24:18.349Z,53.88
2023-01-17T13:26:31.311Z,53.91
2023-01-17T13:28:53.552Z,53.75
2023-01-17T13:31:15.405Z,53.08
2023-01-17T13:33:31.936Z,53.78
2023-01-17T13:35:42.772Z,53.71
2023-01-17T13:38:10.174Z,54.05
2023-01-17T13:40:29.340Z,52.38
2023-01-17T13:42:43.976Z,52.96
2023-01-17T13:44:47.313Z,52.63
2023-01-17T13:47:01.737Z,51.86
2023-01-17T13:49:33.950Z,52.90
2023-01-17T13:52:09.531Z,53.23
2023-01-17T13:54:31.616Z,53.16
2023-01-17T13:56:36.140Z,53.57
2023-01-17T13:59:02.657Z,53.50
2023-01-17T14:01:05.766Z,53.29
2023-01-17T14:03:12.379Z,54.01
2023-01-17T14:05:17.517Z,54.11
2023-01-17T14:07:27.252Z,54.93
2023-01-17T14:09:39.979Z,54.43
2023-01-17T14:12:08.208Z,51.46
2023-01-17T14:14:49.758Z,52.33
2023-01-17T14:16:52.595Z,51.37
2023-01-17T14:18:56.411Z,51.26
2023-01-17T14:21:13.882Z,52.25
2023-01-17T14:23:49.441Z,51.71
2023-01-17T14:25:54.204Z,50.21
2023-01-17T14:28:02.127Z,50.91
2023-01-17T14:30:17.375Z,50.59
2023-01-17T14:32:23.061Z,50.92
2023-01-17T14:34:26.348Z,51.99
2023-01-17T14:36:34.470Z,50.77
2023-01-17T14:38:43.498Z,50.61
2023-01-17T14:40:52.786Z,51.99
2023-01-17T14:43:01.671Z,50.78
2023-01-17T14:45:06.772Z,50.80
2023-01-17T14:47:13.887Z,50.77
2023-01-17T14:49:24.029Z,50.96
2023-01-17T14:51:26.943Z,62.33
2023-01-17T14:53:31.434Z,62.44
2023-01-17T14:55:34.332Z,56.27
2023-01-17T14:57:37.188Z,53.38
2023-01-17T14:59:41.376Z,53.63
2023-01-17T15:01:55.229Z,52.60
2023-01-17T15:04:05.113Z,52.50
2023-01-17T15:06:13.156Z,52.38
2023-01-17T15:08:21.067Z,51.88
2023-01-17T15:10:29.089Z,51.07
2023-01-17T15:12:31.878Z,52.24
2023-01-17T15:14:39.761Z,52.54
2023-01-17T15:16:44.082Z,52.44
2023-01-17T15:18:47.464Z,51.96
2023-01-17T15:20:56.290Z,53.00
2023-01-17T15:22:59.231Z,51.37
2023-01-17T15:25:02.502Z,51.58
2023-01-17T15:27:06.138Z,51.60
2023-01-17T15:29:15.790Z,51.75
2023-01-17T15:31:22.440Z,52.22
2023-01-17T15:33:26.711Z,52.40
2023-01-17T15:35:29.664Z,52.93
2023-01-17T15:37:35.914Z,52.62
2023-01-17T15:39:41.174Z,52.62
2023-01-17T15:41:43.956Z,52.09
2023-01-17T15:43:46.827Z,52.54
2023-01-17T15:45:56.884Z,53.03
2023-01-17T15:48:32.974Z,52.49
2023-01-17T15:50:38.626Z,52.20
2023-01-17T15:52:49.790Z,52.26
2023-01-17T15:54:54.642Z,52.51
2023-01-17T15:57:07.982Z,52.75
2023-01-17T15:59:34.275Z,52.11
2023-01-17T16:01:37.175Z,52.74
2023-01-17T16:03:51.816Z,51.84
2023-01-17T16:05:57.617Z,51.46
2023-01-17T16:08:24.827Z,51.58
2023-01-17T16:10:31.613Z,52.09
2023-01-17T16:12:34.479Z,52.29
2023-01-17T16:14:56.386Z,51.67
2023-01-17T16:17:01.512Z,51.89
2023-01-17T16:19:07.105Z,51.63
2023-01-17T16:21:23.949Z,51.84
2023-01-17T16:23:26.832Z,52.17
2023-01-17T16:25:32.604Z,52.68
2023-01-17T16:27:35.476Z,52.47
2023-01-17T16:29:38.271Z,52.78
2023-01-17T16:31:41.084Z,52.42
2023-01-17T16:33:44.023Z,52.54
2023-01-17T16:35:48.147Z,52.47
2023-01-17T16:37:51.755Z,52.56
2023-01-17T16:39:54.757Z,52.15
2023-01-17T16:42:00.719Z,52.36
2023-01-17T16:44:06.169Z,53.04
2023-01-17T16:46:12.259Z,53.40
2023-01-17T16:48:16.030Z,52.54
2023-01-17T16:50:22.236Z,52.60
2023-01-17T16:52:26.430Z,52.85
2023-01-17T16:54:29.188Z,53.42
2023-01-17T16:56:32.045Z,53.10
2023-01-17T16:58:34.875Z,52.95
2023-01-17T17:00:38.059Z,52.87
2023-01-17T17:02:40.953Z,52.12
2023-01-17T17:04:43.715Z,52.34
2023-01-17T17:06:46.667Z,51.33
2023-01-17T17:08:50.866Z,51.11
2023-01-17T17:10:53.688Z,51.58
2023-01-17T17:12:57.437Z,51.26
2023-01-17T17:15:00.187Z,51.52
2023-01-17T17:17:02.934Z,51.64
2023-01-17T17:19:07.568Z,51.69
2023-01-17T17:21:10.348Z,52.47
2023-01-17T17:23:13.157Z,52.54
2023-01-17T17:25:18.046Z,51.93
2023-01-17T17:27:26.180Z,52.09
2023-01-17T17:29:29.148Z,52.14
2023-01-17T17:31:32.071Z,51.74
2023-01-17T17:33:35.135Z,51.63
2023-01-17T17:35:37.989Z,51.33
2023-01-17T17:37:40.883Z,52.04
2023-01-17T17:39:44.454Z,52.63
2023-01-17T17:41:48.604Z,53.16
2023-01-17T17:43:52.096Z,52.95
2023-01-17T17:45:55.015Z,52.15
2023-01-17T17:47:57.923Z,52.30
2023-01-17T17:50:00.819Z,52.27
2023-01-17T17:52:07.867Z,52.49
2023-01-17T17:54:12.402Z,52.92
2023-01-17T17:56:15.140Z,53.10
2023-01-17T17:58:19.421Z,53.13
2023-01-17T18:00:23.060Z,53.16
2023-01-17T18:02:25.916Z,52.61
2023-01-17T18:04:28.918Z,52.94
2023-01-17T18:06:31.745Z,53.17
2023-01-17T18:08:34.809Z,53.19
2023-01-17T18:10:39.447Z,53.62
2023-01-17T18:12:42.244Z,53.19
2023-01-17T18:14:46.334Z,53.72
2023-01-17T18:16:50.612Z,53.91
2023-01-17T18:18:57.081Z,53.88
2023-01-17T18:21:12.202Z,53.36
2023-01-17T18:23:15.173Z,53.48
2023-01-17T18:25:18.105Z,53.18
2023-01-17T18:27:21.045Z,53.42
2023-01-17T18:29:25.728Z,53.55
2023-01-17T18:31:31.415Z,53.82
2023-01-17T18:33:37.941Z,53.95
2023-01-17T18:35:40.899Z,54.38
2023-01-17T18:37:43.708Z,54.24
2023-01-17T18:39:46.627Z,54.11
2023-01-17T18:41:49.570Z,54.33
2023-01-17T18:43:52.796Z,54.74
2023-01-17T18:45:55.564Z,54.28
2023-01-17T18:47:59.915Z,54.24
2023-01-17T18:50:02.784Z,53.99
2023-01-17T18:52:07.950Z,53.74
2023-01-17T18:54:10.867Z,54.05
2023-01-17T18:56:16.746Z,53.66
2023-01-17T18:58:19.701Z,53.43
2023-01-17T19:00:23.480Z,53.74
2023-01-17T19:02:26.905Z,53.78
2023-01-17T19:04:33.856Z,54.48
2023-01-17T19:06:38.169Z,53.91
2023-01-17T19:08:41.714Z,53.43
2023-01-17T19:10:44.683Z,53.62
2023-01-17T19:12:47.532Z,53.71
2023-01-17T19:14:50.337Z,54.03
2023-01-17T19:16:53.228Z,53.89
2023-01-17T19:18:57.662Z,53.73
2023-01-17T19:21:06.678Z,53.20
2023-01-17T19:23:09.602Z,53.43
2023-01-17T19:25:12.408Z,53.56
2023-01-17T19:27:15.211Z,53.66
2023-01-17T19:29:18.147Z,53.64
2023-01-17T19:31:23.078Z,53.56
2023-01-17T19:33:25.926Z,53.90
2023-01-17T19:35:28.839Z,53.98
2023-01-17T19:37:33.224Z,53.59
2023-01-17T19:39:36.138Z,53.92
2023-01-17T19:41:42.899Z,54.23
2023-01-17T19:43:45.726Z,53.39
2023-01-17T19:45:58.375Z,53.17
2023-01-17T19:48:01.247Z,53.26
2023-01-17T19:50:08.169Z,53.29
2023-01-17T19:52:11.448Z,53.12
2023-01-17T19:54:15.715Z,52.94
2023-01-17T19:56:20.206Z,53.46
2023-01-17T19:58:22.998Z,53.31
2023-01-17T20:00:30.235Z,53.10
2023-01-17T20:02:34.825Z,53.90
2023-01-17T20:04:37.739Z,53.79
2023-01-17T20:06:40.581Z,53.82
2023-01-17T20:08:43.483Z,53.97
2023-01-17T20:10:49.117Z,53.94
2023-01-17T20:12:52.090Z,53.86
2023-01-17T20:14:55.121Z,54.07
2023-01-17T20:16:57.921Z,54.08
2023-01-17T20:19:02.716Z,54.45
2023-01-17T20:21:07.809Z,54.44
2023-01-17T20:23:10.639Z,54.40
2023-01-17T20:25:14.508Z,54.10
2023-01-17T20:27:18.955Z,54.32
2023-01-17T20:29:21.702Z,53.71
2023-01-17T20:31:26.715Z,53.38
2023-01-17T20:33:29.519Z,53.58
2023-01-17T20:35:33.647Z,53.63
2023-01-17T20:37:37.032Z,53.52
2023-01-17T20:39:39.849Z,54.18
2023-01-17T20:41:45.459Z,54.64
2023-01-17T20:43:51.549Z,55.06
2023-01-17T20:45:57.314Z,55.24
2023-01-17T20:48:00.515Z,55.69
2023-01-17T20:50:04.327Z,55.67
2023-01-17T20:52:07.237Z,55.80
2023-01-17T20:54:12.895Z,56.46
2023-01-17T20:56:17.147Z,56.47
2023-01-17T20:58:21.427Z,56.55
2023-01-17T21:00:25.932Z,56.88
2023-01-17T21:02:29.854Z,56.90
2023-01-17T21:04:32.668Z,56.79
2023-01-17T21:06:35.555Z,56.94
2023-01-17T21:08:40.148Z,57.10
2023-01-17T21:10:47.550Z,57.21
2023-01-17T21:12:50.365Z,56.82
2023-01-17T21:14:53.681Z,56.53
2023-01-17T21:16:57.891Z,56.39
2023-01-17T21:19:01.454Z,56.54
2023-01-17T21:21:05.637Z,57.28
2023-01-17T21:23:09.002Z,56.54
2023-01-17T21:25:11.919Z,56.65
2023-01-17T21:27:16.976Z,56.76
2023-01-17T21:29:19.869Z,56.98
2023-01-17T21:31:25.702Z,56.69
2023-01-17T21:33:30.195Z,57.00
2023-01-17T21:35:32.993Z,57.34
2023-01-17T21:37:35.884Z,56.99
2023-01-17T21:39:39.541Z,57.37
2023-01-17T21:41:46.366Z,57.66
2023-01-17T21:43:49.484Z,57.05
2023-01-17T21:45:52.375Z,57.13
2023-01-17T21:47:55.475Z,57.00
2023-01-17T21:49:59.922Z,57.10
2023-01-17T21:52:20.824Z,57.15
2023-01-17T21:54:44.953Z,56.23
2023-01-17T21:57:05.489Z,56.75
2023-01-17T21:59:07.347Z,57.10
2023-01-17T22:01:17.871Z,57.44
2023-01-17T22:03:20.977Z,57.38
2023-01-17T22:05:25.083Z,57.62
2023-01-17T22:07:29.023Z,57.96
2023-01-17T22:09:31.790Z,57.77
2023-01-17T22:11:37.392Z,58.11
2023-01-17T22:13:42.382Z,58.30
2023-01-17T22:15:45.642Z,58.30
2023-01-17T22:17:48.438Z,58.27
2023-01-17T22:19:51.446Z,58.01
2023-01-17T22:21:56.522Z,57.74
2023-01-17T22:24:00.319Z,57.68
2023-01-17T22:26:04.391Z,57.77
2023-01-17T22:28:07.209Z,57.67
2023-01-17T22:30:12.958Z,57.86
2023-01-17T22:32:15.742Z,58.37
2023-01-17T22:34:19.010Z,58.15
2023-01-17T22:36:22.015Z,58.17
2023-01-17T22:38:26.287Z,57.80
2023-01-17T22:40:29.134Z,57.89
2023-01-17T22:42:34.077Z,57.40
2023-01-17T22:44:36.698Z,56.88
2023-01-17T22:46:41.344Z,56.33
2023-01-17T22:48:44.357Z,55.18
2023-01-17T22:50:47.316Z,55.20
2023-01-17T22:52:50.162Z,55.28
2023-01-17T22:54:54.350Z,55.67
2023-01-17T22:56:57.061Z,55.84
2023-01-17T22:59:00.771Z,55.92
2023-01-17T23:01:07.607Z,55.70
2023-01-17T23:03:10.560Z,56.12
2023-01-17T23:05:13.437Z,56.54
2023-01-17T23:07:16.552Z,56.82
2023-01-17T23:09:19.392Z,56.21
2023-01-17T23:11:42.654Z,56.38
2023-01-17T23:13:45.599Z,56.85
2023-01-17T23:16:14.565Z,57.32
2023-01-17T23:18:35.282Z,56.78
2023-01-17T23:20:38.100Z,56.56
2023-01-17T23:22:40.941Z,56.87
2023-01-17T23:24:45.259Z,56.90
2023-01-17T23:27:03.245Z,56.92
2023-01-17T23:29:06.027Z,56.73
2023-01-17T23:31:10.797Z,56.67
2023-01-17T23:33:15.804Z,57.28
2023-01-17T23:35:20.731Z,56.81
2023-01-17T23:37:47.250Z,57.32
2023-01-17T23:39:49.142Z,57.38
2023-01-17T23:42:10.924Z,57.47
2023-01-17T23:44:13.839Z,57.36
2023-01-17T23:46:16.716Z,57.24
2023-01-17T23:48:20.626Z,57.17
2023-01-17T23:50:23.446Z,57.78
2023-01-17T23:52:26.308Z,57.70
2023-01-17T23:54:29.073Z,57.74
2023-01-17T23:56:32.222Z,58.18
2023-01-17T23:58:36.329Z,58.50
